sensor_id;sensor_type;location;lat;lon;timestamp;pressure;altitude;pressure_sealevel;temperature;humidity
72585;BME280;60618;40.084;32.908;2023-07-31T00:01:27;89109.06;;;17.61;59.44
72585;BME280;60618;40.084;32.908;2023-07-31T00:03:55;89107.03;;;17.54;59.64
72585;BME280;60618;40.084;32.908;2023-07-31T00:06:22;89111.28;;;17.49;59.78
72585;BME280;60618;40.084;32.908;2023-07-31T00:08:49;89125.28;;;17.48;59.93
72585;BME280;60618;40.084;32.908;2023-07-31T00:11:16;89106.81;;;17.52;59.61
72585;BME280;60618;40.084;32.908;2023-07-31T00:13:43;89107.06;;;17.41;59.96
72585;BME280;60618;40.084;32.908;2023-07-31T00:16:11;89109.47;;;17.44;59.83
72585;BME280;60618;40.084;32.908;2023-07-31T00:18:38;89094.16;;;17.39;60.09
72585;BME280;60618;40.084;32.908;2023-07-31T00:21:05;89118.47;;;17.34;60.35
72585;BME280;60618;40.084;32.908;2023-07-31T00:23:33;89114.16;;;17.30;60.49
72585;BME280;60618;40.084;32.908;2023-07-31T00:26:00;89114.34;;;17.33;60.57
72585;BME280;60618;40.084;32.908;2023-07-31T00:28:27;89099.69;;;17.20;60.71
72585;BME280;60618;40.084;32.908;2023-07-31T00:30:55;89111.56;;;17.25;60.75
72585;BME280;60618;40.084;32.908;2023-07-31T00:33:22;89108.06;;;17.30;60.49
72585;BME280;60618;40.084;32.908;2023-07-31T00:35:49;89114.78;;;17.23;60.53
72585;BME280;60618;40.084;32.908;2023-07-31T00:38:17;89110.25;;;17.18;60.67
72585;BME280;60618;40.084;32.908;2023-07-31T00:40:44;89114.41;;;17.19;60.43
72585;BME280;60618;40.084;32.908;2023-07-31T00:43:11;89110.13;;;17.24;60.51
72585;BME280;60618;40.084;32.908;2023-07-31T00:45:39;89115.50;;;17.24;60.68
72585;BME280;60618;40.084;32.908;2023-07-31T00:48:07;89096.81;;;17.18;60.50
72585;BME280;60618;40.084;32.908;2023-07-31T00:50:35;89101.25;;;17.16;60.75
72585;BME280;60618;40.084;32.908;2023-07-31T00:53:03;89111.28;;;17.15;60.94
72585;BME280;60618;40.084;32.908;2023-07-31T00:55:30;89120.09;;;17.16;60.76
72585;BME280;60618;40.084;32.908;2023-07-31T00:57:58;89119.38;;;17.15;60.67
72585;BME280;60618;40.084;32.908;2023-07-31T01:00:25;89106.16;;;17.04;61.10
72585;BME280;60618;40.084;32.908;2023-07-31T01:02:52;89092.31;;;17.00;61.16
72585;BME280;60618;40.084;32.908;2023-07-31T01:05:25;89120.13;;;16.89;61.28
72585;BME280;60618;40.084;32.908;2023-07-31T01:08:33;89114.66;;;16.95;61.50
72585;BME280;60618;40.084;32.908;2023-07-31T01:11:16;89116.22;;;16.90;61.67
72585;BME280;60618;40.084;32.908;2023-07-31T01:13:44;89117.78;;;16.86;61.81
72585;BME280;60618;40.084;32.908;2023-07-31T01:16:12;89113.00;;;16.79;62.06
72585;BME280;60618;40.084;32.908;2023-07-31T01:18:39;89120.50;;;16.72;62.48
72585;BME280;60618;40.084;32.908;2023-07-31T01:24:23;89100.41;;;16.73;62.12
72585;BME280;60618;40.084;32.908;2023-07-31T01:26:58;89115.59;;;16.71;62.47
72585;BME280;60618;40.084;32.908;2023-07-31T01:29:49;89110.53;;;16.67;62.64
72585;BME280;60618;40.084;32.908;2023-07-31T01:32:22;89109.41;;;16.63;62.77
72585;BME280;60618;40.084;32.908;2023-07-31T01:34:50;89100.19;;;16.58;62.77
72585;BME280;60618;40.084;32.908;2023-07-31T01:37:18;89117.56;;;16.57;62.91
72585;BME280;60618;40.084;32.908;2023-07-31T01:39:45;89120.56;;;16.54;63.01
72585;BME280;60618;40.084;32.908;2023-07-31T01:42:12;89120.06;;;16.68;62.55
72585;BME280;60618;40.084;32.908;2023-07-31T01:44:39;89120.25;;;16.70;62.30
72585;BME280;60618;40.084;32.908;2023-07-31T01:47:07;89111.66;;;16.59;62.84
72585;BME280;60618;40.084;32.908;2023-07-31T01:49:34;89113.00;;;16.65;62.56
72585;BME280;60618;40.084;32.908;2023-07-31T01:52:01;89114.78;;;16.63;62.42
72585;BME280;60618;40.084;32.908;2023-07-31T01:54:28;89112.19;;;16.57;62.94
72585;BME280;60618;40.084;32.908;2023-07-31T01:56:55;89111.56;;;16.51;63.01
72585;BME280;60618;40.084;32.908;2023-07-31T01:59:22;89113.53;;;16.51;63.16
72585;BME280;60618;40.084;32.908;2023-07-31T02:01:50;89122.50;;;16.53;62.97
72585;BME280;60618;40.084;32.908;2023-07-31T02:04:20;89119.81;;;16.53;63.15
72585;BME280;60618;40.084;32.908;2023-07-31T02:06:47;89121.69;;;16.58;62.75
72585;BME280;60618;40.084;32.908;2023-07-31T02:09:14;89123.16;;;16.46;63.27
72585;BME280;60618;40.084;32.908;2023-07-31T02:11:42;89113.53;;;16.37;63.58
72585;BME280;60618;40.084;32.908;2023-07-31T02:14:09;89123.56;;;16.37;63.47
72585;BME280;60618;40.084;32.908;2023-07-31T02:16:36;89127.25;;;16.34;64.00
72585;BME280;60618;40.084;32.908;2023-07-31T02:19:05;89126.25;;;16.37;63.58
72585;BME280;60618;40.084;32.908;2023-07-31T02:21:32;89128.50;;;16.33;63.69
72585;BME280;60618;40.084;32.908;2023-07-31T02:23:59;89130.06;;;16.28;63.85
72585;BME280;60618;40.084;32.908;2023-07-31T02:26:26;89133.16;;;16.32;63.64
72585;BME280;60618;40.084;32.908;2023-07-31T02:28:53;89129.56;;;16.30;63.88
72585;BME280;60618;40.084;32.908;2023-07-31T02:31:21;89127.25;;;16.34;63.52
72585;BME280;60618;40.084;32.908;2023-07-31T02:33:49;89139.78;;;16.31;63.92
72585;BME280;60618;40.084;32.908;2023-07-31T02:36:16;89130.28;;;16.30;63.47
72585;BME280;60618;40.084;32.908;2023-07-31T02:38:44;89135.34;;;16.34;63.76
72585;BME280;60618;40.084;32.908;2023-07-31T02:41:11;89119.84;;;16.27;63.88
72585;BME280;60618;40.084;32.908;2023-07-31T02:43:38;89129.84;;;16.26;63.78
72585;BME280;60618;40.084;32.908;2023-07-31T02:46:06;89136.06;;;16.34;62.85
72585;BME280;60618;40.084;32.908;2023-07-31T02:48:33;89130.28;;;16.30;63.31
72585;BME280;60618;40.084;32.908;2023-07-31T02:51:00;89138.66;;;16.27;63.34
72585;BME280;60618;40.084;32.908;2023-07-31T02:53:27;89129.44;;;16.22;63.41
72585;BME280;60618;40.084;32.908;2023-07-31T02:55:54;89126.03;;;16.22;63.47
72585;BME280;60618;40.084;32.908;2023-07-31T02:58:21;89127.78;;;16.19;63.45
72585;BME280;60618;40.084;32.908;2023-07-31T03:00:49;89122.63;;;16.21;63.38
72585;BME280;60618;40.084;32.908;2023-07-31T03:03:16;89127.16;;;16.26;63.11
72585;BME280;60618;40.084;32.908;2023-07-31T03:05:43;89135.66;;;16.30;63.04
72585;BME280;60618;40.084;32.908;2023-07-31T03:08:11;89126.94;;;16.24;63.13
72585;BME280;60618;40.084;32.908;2023-07-31T03:10:38;89125.50;;;16.23;63.01
72585;BME280;60618;40.084;32.908;2023-07-31T03:13:05;89132.13;;;16.22;62.97
72585;BME280;60618;40.084;32.908;2023-07-31T03:15:33;89129.13;;;16.26;62.95
72585;BME280;60618;40.084;32.908;2023-07-31T03:18:00;89131.19;;;16.33;62.67
72585;BME280;60618;40.084;32.908;2023-07-31T03:20:27;89138.00;;;16.34;62.30
72585;BME280;60618;40.084;32.908;2023-07-31T03:22:55;89134.81;;;16.35;62.38
72585;BME280;60618;40.084;32.908;2023-07-31T03:25:22;89131.63;;;16.37;61.90
72585;BME280;60618;40.084;32.908;2023-07-31T03:27:49;89130.56;;;16.53;61.61
72585;BME280;60618;40.084;32.908;2023-07-31T03:30:17;89123.13;;;16.59;61.09
72585;BME280;60618;40.084;32.908;2023-07-31T03:32:44;89129.56;;;16.69;60.66
72585;BME280;60618;40.084;32.908;2023-07-31T03:35:11;89137.94;;;16.79;60.09
72585;BME280;60618;40.084;32.908;2023-07-31T03:37:39;89138.75;;;16.87;60.04
72585;BME280;60618;40.084;32.908;2023-07-31T03:40:06;89133.09;;;16.91;59.46
72585;BME280;60618;40.084;32.908;2023-07-31T03:42:33;89130.16;;;17.02;59.18
72585;BME280;60618;40.084;32.908;2023-07-31T03:45:00;89135.44;;;16.94;59.07
72585;BME280;60618;40.084;32.908;2023-07-31T03:47:27;89132.03;;;16.94;59.21
72585;BME280;60618;40.084;32.908;2023-07-31T03:49:55;89126.22;;;17.03;58.88
72585;BME280;60618;40.084;32.908;2023-07-31T03:52:22;89139.97;;;17.13;58.57
72585;BME280;60618;40.084;32.908;2023-07-31T03:54:49;89133.97;;;17.20;58.00
72585;BME280;60618;40.084;32.908;2023-07-31T03:57:16;89135.06;;;17.24;57.88
72585;BME280;60618;40.084;32.908;2023-07-31T03:59:44;89127.69;;;17.38;57.31
72585;BME280;60618;40.084;32.908;2023-07-31T04:02:11;89135.16;;;17.66;56.50
72585;BME280;60618;40.084;32.908;2023-07-31T04:04:38;89136.19;;;17.76;55.97
72585;BME280;60618;40.084;32.908;2023-07-31T04:07:05;89132.63;;;17.81;55.99
72585;BME280;60618;40.084;32.908;2023-07-31T04:09:33;89129.81;;;17.87;55.63
72585;BME280;60618;40.084;32.908;2023-07-31T04:12:00;89127.31;;;17.89;55.10
72585;BME280;60618;40.084;32.908;2023-07-31T04:14:27;89134.41;;;18.00;54.77
72585;BME280;60618;40.084;32.908;2023-07-31T04:16:53;89135.00;;;18.06;54.66
72585;BME280;60618;40.084;32.908;2023-07-31T04:19:21;89131.44;;;18.11;54.16
72585;BME280;60618;40.084;32.908;2023-07-31T04:21:48;89136.56;;;18.22;53.98
72585;BME280;60618;40.084;32.908;2023-07-31T04:24:15;89129.13;;;18.36;53.74
72585;BME280;60618;40.084;32.908;2023-07-31T04:26:42;89126.78;;;18.61;53.28
72585;BME280;60618;40.084;32.908;2023-07-31T04:29:10;89136.03;;;18.73;52.32
72585;BME280;60618;40.084;32.908;2023-07-31T04:31:37;89133.22;;;18.58;52.51
72585;BME280;60618;40.084;32.908;2023-07-31T04:34:05;89133.22;;;18.58;51.64
72585;BME280;60618;40.084;32.908;2023-07-31T04:36:33;89138.19;;;18.75;50.53
72585;BME280;60618;40.084;32.908;2023-07-31T04:39:01;89134.81;;;18.53;50.08
72585;BME280;60618;40.084;32.908;2023-07-31T04:41:28;89139.09;;;18.49;50.94
72585;BME280;60618;40.084;32.908;2023-07-31T04:43:55;89135.38;;;18.59;51.48
72585;BME280;60618;40.084;32.908;2023-07-31T04:46:22;89128.41;;;18.64;50.69
72585;BME280;60618;40.084;32.908;2023-07-31T04:48:50;89142.03;;;18.79;49.55
72585;BME280;60618;40.084;32.908;2023-07-31T04:51:17;89139.41;;;19.02;49.68
72585;BME280;60618;40.084;32.908;2023-07-31T04:53:44;89142.06;;;18.94;48.31
72585;BME280;60618;40.084;32.908;2023-07-31T04:56:11;89137.75;;;18.91;47.71
72585;BME280;60618;40.084;32.908;2023-07-31T04:58:38;89137.06;;;18.98;47.72
72585;BME280;60618;40.084;32.908;2023-07-31T05:01:05;89144.41;;;18.90;47.25
72585;BME280;60618;40.084;32.908;2023-07-31T05:03:32;89137.03;;;18.91;46.05
72585;BME280;60618;40.084;32.908;2023-07-31T05:05:59;89134.75;;;19.03;46.45
72585;BME280;60618;40.084;32.908;2023-07-31T05:08:26;89134.69;;;19.31;45.12
72585;BME280;60618;40.084;32.908;2023-07-31T05:10:54;89140.44;;;19.27;44.62
72585;BME280;60618;40.084;32.908;2023-07-31T05:13:22;89138.66;;;19.38;44.12
72585;BME280;60618;40.084;32.908;2023-07-31T05:15:49;89139.06;;;19.49;44.13
72585;BME280;60618;40.084;32.908;2023-07-31T05:18:16;89142.47;;;20.17;42.55
72585;BME280;60618;40.084;32.908;2023-07-31T05:20:44;89147.50;;;20.20;41.13
72585;BME280;60618;40.084;32.908;2023-07-31T05:23:11;89150.06;;;20.41;42.34
72585;BME280;60618;40.084;32.908;2023-07-31T05:25:38;89149.00;;;20.44;40.86
72585;BME280;60618;40.084;32.908;2023-07-31T05:28:06;89144.66;;;20.72;41.02
72585;BME280;60618;40.084;32.908;2023-07-31T05:30:33;89150.38;;;21.06;40.54
72585;BME280;60618;40.084;32.908;2023-07-31T05:33:00;89145.84;;;21.01;39.03
72585;BME280;60618;40.084;32.908;2023-07-31T05:35:28;89143.44;;;21.20;39.42
72585;BME280;60618;40.084;32.908;2023-07-31T05:37:55;89139.56;;;20.91;40.05
72585;BME280;60618;40.084;32.908;2023-07-31T05:40:22;89140.41;;;21.09;39.66
72585;BME280;60618;40.084;32.908;2023-07-31T05:42:49;89132.72;;;20.90;39.59
72585;BME280;60618;40.084;32.908;2023-07-31T05:45:17;89137.53;;;21.14;39.87
72585;BME280;60618;40.084;32.908;2023-07-31T05:47:44;89135.03;;;21.01;39.62
72585;BME280;60618;40.084;32.908;2023-07-31T05:50:12;89141.28;;;21.19;38.96
72585;BME280;60618;40.084;32.908;2023-07-31T05:52:39;89146.66;;;21.49;38.68
72585;BME280;60618;40.084;32.908;2023-07-31T05:55:09;89144.13;;;21.44;38.26
72585;BME280;60618;40.084;32.908;2023-07-31T05:57:36;89139.88;;;21.98;37.99
72585;BME280;60618;40.084;32.908;2023-07-31T06:00:04;89139.09;;;22.13;36.37
72585;BME280;60618;40.084;32.908;2023-07-31T06:02:32;89139.59;;;22.19;36.70
72585;BME280;60618;40.084;32.908;2023-07-31T06:04:59;89140.88;;;22.43;35.97
72585;BME280;60618;40.084;32.908;2023-07-31T06:07:27;89142.91;;;22.35;35.90
72585;BME280;60618;40.084;32.908;2023-07-31T06:09:56;89136.28;;;22.28;36.54
72585;BME280;60618;40.084;32.908;2023-07-31T06:12:24;89137.53;;;22.77;35.71
72585;BME280;60618;40.084;32.908;2023-07-31T06:14:51;89135.00;;;22.97;34.99
72585;BME280;60618;40.084;32.908;2023-07-31T06:17:18;89133.13;;;22.82;35.78
72585;BME280;60618;40.084;32.908;2023-07-31T06:19:45;89138.97;;;22.78;35.65
72585;BME280;60618;40.084;32.908;2023-07-31T06:22:12;89131.22;;;22.75;35.32
72585;BME280;60618;40.084;32.908;2023-07-31T06:24:40;89141.94;;;22.48;35.66
72585;BME280;60618;40.084;32.908;2023-07-31T06:27:13;89141.97;;;22.65;35.86
72585;BME280;60618;40.084;32.908;2023-07-31T06:29:41;89130.09;;;23.20;34.78
72585;BME280;60618;40.084;32.908;2023-07-31T06:32:11;89134.78;;;23.02;34.89
72585;BME280;60618;40.084;32.908;2023-07-31T06:34:39;89135.31;;;22.83;35.03
72585;BME280;60618;40.084;32.908;2023-07-31T06:37:06;89136.59;;;23.00;34.80
72585;BME280;60618;40.084;32.908;2023-07-31T06:39:33;89131.38;;;23.19;34.55
72585;BME280;60618;40.084;32.908;2023-07-31T06:42:01;89135.59;;;23.47;33.78
72585;BME280;60618;40.084;32.908;2023-07-31T06:44:28;89130.59;;;23.70;34.37
72585;BME280;60618;40.084;32.908;2023-07-31T06:46:55;89132.66;;;23.79;33.93
72585;BME280;60618;40.084;32.908;2023-07-31T06:49:23;89129.09;;;23.60;33.89
72585;BME280;60618;40.084;32.908;2023-07-31T06:51:50;89126.88;;;23.66;34.23
72585;BME280;60618;40.084;32.908;2023-07-31T06:54:17;89129.16;;;23.52;34.47
72585;BME280;60618;40.084;32.908;2023-07-31T06:56:45;89126.63;;;23.37;34.90
72585;BME280;60618;40.084;32.908;2023-07-31T06:59:12;89129.69;;;23.85;33.97
72585;BME280;60618;40.084;32.908;2023-07-31T07:01:39;89128.28;;;24.38;33.63
72585;BME280;60618;40.084;32.908;2023-07-31T07:04:10;89127.34;;;24.62;33.03
72585;BME280;60618;40.084;32.908;2023-07-31T07:06:37;89134.16;;;23.90;34.45
72585;BME280;60618;40.084;32.908;2023-07-31T07:09:05;89135.13;;;23.85;34.09
72585;BME280;60618;40.084;32.908;2023-07-31T07:11:32;89127.91;;;23.97;33.74
72585;BME280;60618;40.084;32.908;2023-07-31T07:13:59;89126.78;;;24.27;33.63
72585;BME280;60618;40.084;32.908;2023-07-31T07:16:28;89129.09;;;24.68;32.44
72585;BME280;60618;40.084;32.908;2023-07-31T07:18:56;89125.75;;;24.59;32.61
72585;BME280;60618;40.084;32.908;2023-07-31T07:21:30;89126.47;;;25.06;32.02
72585;BME280;60618;40.084;32.908;2023-07-31T07:23:57;89127.22;;;25.36;31.65
72585;BME280;60618;40.084;32.908;2023-07-31T07:26:24;89122.59;;;25.09;31.57
72585;BME280;60618;40.084;32.908;2023-07-31T07:28:51;89128.41;;;24.86;32.32
72585;BME280;60618;40.084;32.908;2023-07-31T07:31:19;89125.28;;;25.00;31.77
72585;BME280;60618;40.084;32.908;2023-07-31T07:33:47;89122.75;;;25.21;30.86
72585;BME280;60618;40.084;32.908;2023-07-31T07:36:14;89124.47;;;25.84;31.13
72585;BME280;60618;40.084;32.908;2023-07-31T07:38:41;89126.72;;;26.17;30.12
72585;BME280;60618;40.084;32.908;2023-07-31T07:41:08;89113.41;;;25.92;30.73
72585;BME280;60618;40.084;32.908;2023-07-31T07:43:35;89125.31;;;26.06;29.82
72585;BME280;60618;40.084;32.908;2023-07-31T07:46:03;89118.47;;;25.37;30.57
72585;BME280;60618;40.084;32.908;2023-07-31T07:48:30;89115.88;;;25.39;30.20
72585;BME280;60618;40.084;32.908;2023-07-31T07:50:57;89114.69;;;26.00;30.46
72585;BME280;60618;40.084;32.908;2023-07-31T07:53:24;89121.66;;;26.23;29.48
72585;BME280;60618;40.084;32.908;2023-07-31T07:55:51;89118.22;;;26.22;29.77
72585;BME280;60618;40.084;32.908;2023-07-31T07:58:18;89114.97;;;25.95;30.17
72585;BME280;60618;40.084;32.908;2023-07-31T08:00:51;89111.81;;;25.98;29.98
72585;BME280;60618;40.084;32.908;2023-07-31T08:03:18;89115.72;;;26.46;29.65
72585;BME280;60618;40.084;32.908;2023-07-31T08:05:45;89110.97;;;26.77;28.97
72585;BME280;60618;40.084;32.908;2023-07-31T08:08:16;89114.19;;;26.23;30.02
72585;BME280;60618;40.084;32.908;2023-07-31T08:10:43;89113.44;;;26.42;29.33
72585;BME280;60618;40.084;32.908;2023-07-31T08:13:12;89107.44;;;26.65;29.07
72585;BME280;60618;40.084;32.908;2023-07-31T08:15:41;89102.25;;;26.69;29.38
72585;BME280;60618;40.084;32.908;2023-07-31T08:18:09;89110.72;;;26.42;29.34
72585;BME280;60618;40.084;32.908;2023-07-31T08:20:38;89095.50;;;26.70;28.77
72585;BME280;60618;40.084;32.908;2023-07-31T08:23:06;89098.13;;;26.90;28.96
72585;BME280;60618;40.084;32.908;2023-07-31T08:25:37;89102.03;;;26.55;29.18
72585;BME280;60618;40.084;32.908;2023-07-31T08:28:06;89107.53;;;26.46;28.89
72585;BME280;60618;40.084;32.908;2023-07-31T08:30:35;89097.13;;;26.85;28.87
72585;BME280;60618;40.084;32.908;2023-07-31T08:33:02;89095.66;;;27.36;28.84
72585;BME280;60618;40.084;32.908;2023-07-31T08:35:30;89093.72;;;27.06;27.91
72585;BME280;60618;40.084;32.908;2023-07-31T08:37:57;89092.16;;;27.03;28.80
72585;BME280;60618;40.084;32.908;2023-07-31T08:40:25;89086.69;;;27.03;28.56
72585;BME280;60618;40.084;32.908;2023-07-31T08:42:54;89091.03;;;26.96;28.14
72585;BME280;60618;40.084;32.908;2023-07-31T08:45:21;89097.13;;;27.16;28.75
72585;BME280;60618;40.084;32.908;2023-07-31T08:47:50;89083.63;;;27.51;28.66
72585;BME280;60618;40.084;32.908;2023-07-31T08:50:20;89085.84;;;27.76;27.58
72585;BME280;60618;40.084;32.908;2023-07-31T08:52:49;89090.03;;;26.92;28.33
72585;BME280;60618;40.084;32.908;2023-07-31T08:55:17;89091.03;;;26.96;29.20
72585;BME280;60618;40.084;32.908;2023-07-31T08:57:46;89088.50;;;27.53;27.53
72585;BME280;60618;40.084;32.908;2023-07-31T09:00:14;89077.94;;;27.92;27.67
72585;BME280;60618;40.084;32.908;2023-07-31T09:02:48;89074.16;;;28.20;27.04
72585;BME280;60618;40.084;32.908;2023-07-31T09:05:20;89076.47;;;27.79;27.10
72585;BME280;60618;40.084;32.908;2023-07-31T09:07:49;89074.47;;;27.91;27.57
72585;BME280;60618;40.084;32.908;2023-07-31T09:10:17;89072.41;;;28.25;27.31
72585;BME280;60618;40.084;32.908;2023-07-31T09:12:45;89081.47;;;28.39;26.37
72585;BME280;60618;40.084;32.908;2023-07-31T09:15:13;89071.78;;;28.15;26.85
72585;BME280;60618;40.084;32.908;2023-07-31T09:18:00;89066.34;;;28.73;27.05
72585;BME280;60618;40.084;32.908;2023-07-31T09:20:28;89072.94;;;29.40;25.75
72585;BME280;60618;40.084;32.908;2023-07-31T09:22:56;89061.00;;;29.36;25.13
72585;BME280;60618;40.084;32.908;2023-07-31T09:25:25;89072.19;;;28.79;25.66
72585;BME280;60618;40.084;32.908;2023-07-31T09:28:01;89074.94;;;28.56;25.90
72585;BME280;60618;40.084;32.908;2023-07-31T09:30:29;89071.00;;;28.71;26.07
72585;BME280;60618;40.084;32.908;2023-07-31T09:33:05;89065.41;;;28.57;26.65
72585;BME280;60618;40.084;32.908;2023-07-31T09:35:34;89065.28;;;28.43;25.96
72585;BME280;60618;40.084;32.908;2023-07-31T09:38:11;89066.00;;;28.91;26.05
72585;BME280;60618;40.084;32.908;2023-07-31T09:40:42;89067.56;;;29.43;25.74
72585;BME280;60618;40.084;32.908;2023-07-31T09:43:20;89057.78;;;30.02;24.97
72585;BME280;60618;40.084;32.908;2023-07-31T09:45:52;89066.94;;;29.56;25.21
72585;BME280;60618;40.084;32.908;2023-07-31T09:48:20;89063.88;;;29.38;25.25
72585;BME280;60618;40.084;32.908;2023-07-31T09:50:50;89055.59;;;29.13;25.64
72585;BME280;60618;40.084;32.908;2023-07-31T09:53:17;89053.22;;;28.25;26.16
72585;BME280;60618;40.084;32.908;2023-07-31T09:55:44;89054.44;;;28.45;26.64
72585;BME280;60618;40.084;32.908;2023-07-31T09:58:12;89050.72;;;28.88;26.16
72585;BME280;60618;40.084;32.908;2023-07-31T10:00:39;89046.28;;;29.18;26.07
72585;BME280;60618;40.084;32.908;2023-07-31T10:03:08;89044.19;;;29.04;25.53
72585;BME280;60618;40.084;32.908;2023-07-31T10:05:42;89046.69;;;28.89;25.73
72585;BME280;60618;40.084;32.908;2023-07-31T10:08:14;89044.41;;;28.73;26.17
72585;BME280;60618;40.084;32.908;2023-07-31T10:10:43;89041.84;;;28.40;26.28
72585;BME280;60618;40.084;32.908;2023-07-31T10:13:12;89042.16;;;29.05;26.42
72585;BME280;60618;40.084;32.908;2023-07-31T10:15:40;89042.41;;;29.97;24.77
72585;BME280;60618;40.084;32.908;2023-07-31T10:18:08;89039.63;;;30.75;24.27
72585;BME280;60618;40.084;32.908;2023-07-31T10:20:36;89034.28;;;30.38;24.32
72585;BME280;60618;40.084;32.908;2023-07-31T10:23:04;89024.25;;;29.41;25.06
72585;BME280;60618;40.084;32.908;2023-07-31T10:25:32;89027.06;;;29.18;25.64
72585;BME280;60618;40.084;32.908;2023-07-31T10:28:00;89031.34;;;28.60;26.19
72585;BME280;60618;40.084;32.908;2023-07-31T10:30:31;89032.75;;;28.73;25.71
72585;BME280;60618;40.084;32.908;2023-07-31T10:32:59;89028.63;;;29.21;24.74
72585;BME280;60618;40.084;32.908;2023-07-31T10:35:27;89026.81;;;29.25;24.65
72585;BME280;60618;40.084;32.908;2023-07-31T10:37:54;89014.19;;;29.20;25.25
72585;BME280;60618;40.084;32.908;2023-07-31T10:40:26;89013.41;;;29.06;25.82
72585;BME280;60618;40.084;32.908;2023-07-31T10:42:55;89013.16;;;29.02;25.29
72585;BME280;60618;40.084;32.908;2023-07-31T10:45:37;89006.03;;;29.34;24.99
72585;BME280;60618;40.084;32.908;2023-07-31T10:48:23;88999.38;;;29.62;24.73
72585;BME280;60618;40.084;32.908;2023-07-31T10:50:54;88998.94;;;29.54;24.83
72585;BME280;60618;40.084;32.908;2023-07-31T10:53:26;88994.84;;;29.30;24.86
72585;BME280;60618;40.084;32.908;2023-07-31T10:55:58;88990.44;;;29.25;25.49
72585;BME280;60618;40.084;32.908;2023-07-31T10:58:27;88990.44;;;29.25;25.01
72585;BME280;60618;40.084;32.908;2023-07-31T11:00:59;88988.97;;;29.35;25.35
72585;BME280;60618;40.084;32.908;2023-07-31T11:03:49;88988.00;;;29.05;25.12
72585;BME280;60618;40.084;32.908;2023-07-31T11:06:17;88993.50;;;29.05;25.40
72585;BME280;60618;40.084;32.908;2023-07-31T11:08:49;88991.25;;;28.90;25.53
72585;BME280;60618;40.084;32.908;2023-07-31T11:11:20;88990.56;;;28.90;25.39
72585;BME280;60618;40.084;32.908;2023-07-31T11:13:50;88991.63;;;28.73;25.46
72585;BME280;60618;40.084;32.908;2023-07-31T11:16:18;88982.69;;;28.96;25.03
72585;BME280;60618;40.084;32.908;2023-07-31T11:18:47;88975.41;;;29.26;24.54
72585;BME280;60618;40.084;32.908;2023-07-31T11:21:17;88969.28;;;29.64;24.76
72585;BME280;60618;40.084;32.908;2023-07-31T11:23:49;88971.03;;;29.46;24.35
72585;BME280;60618;40.084;32.908;2023-07-31T11:26:18;88964.09;;;29.57;24.53
72585;BME280;60618;40.084;32.908;2023-07-31T11:28:49;88966.31;;;29.35;24.32
72585;BME280;60618;40.084;32.908;2023-07-31T11:31:17;88969.03;;;29.09;25.16
72585;BME280;60618;40.084;32.908;2023-07-31T11:33:45;88960.91;;;29.11;25.31
72585;BME280;60618;40.084;32.908;2023-07-31T11:36:20;88962.41;;;29.77;24.61
72585;BME280;60618;40.084;32.908;2023-07-31T11:38:48;88958.03;;;30.11;23.41
72585;BME280;60618;40.084;32.908;2023-07-31T11:41:16;88962.91;;;30.27;23.59
72585;BME280;60618;40.084;32.908;2023-07-31T11:43:45;88954.69;;;30.68;23.00
72585;BME280;60618;40.084;32.908;2023-07-31T11:46:14;88957.22;;;30.22;22.59
72585;BME280;60618;40.084;32.908;2023-07-31T11:48:42;88942.53;;;30.04;23.12
72585;BME280;60618;40.084;32.908;2023-07-31T11:51:11;88942.78;;;29.83;23.75
72585;BME280;60618;40.084;32.908;2023-07-31T11:53:49;88947.75;;;29.47;23.44
72585;BME280;60618;40.084;32.908;2023-07-31T11:56:19;88940.72;;;29.44;23.31
72585;BME280;60618;40.084;32.908;2023-07-31T11:58:57;88938.97;;;29.62;23.53
72585;BME280;60618;40.084;32.908;2023-07-31T12:01:26;88953.97;;;30.12;24.28
72585;BME280;60618;40.084;32.908;2023-07-31T12:03:53;88947.03;;;30.80;22.24
72585;BME280;60618;40.084;32.908;2023-07-31T12:06:21;88939.91;;;30.89;21.46
72585;BME280;60618;40.084;32.908;2023-07-31T12:09:05;88939.25;;;29.94;22.89
72585;BME280;60618;40.084;32.908;2023-07-31T12:11:46;88931.78;;;29.69;23.53
72585;BME280;60618;40.084;32.908;2023-07-31T12:14:41;88927.09;;;29.58;23.21
72585;BME280;60618;40.084;32.908;2023-07-31T12:17:11;88935.06;;;29.79;23.13
72585;BME280;60618;40.084;32.908;2023-07-31T12:19:39;88932.50;;;29.70;23.55
72585;BME280;60618;40.084;32.908;2023-07-31T12:22:13;88929.91;;;29.99;23.87
72585;BME280;60618;40.084;32.908;2023-07-31T12:24:43;88937.38;;;30.51;22.04
72585;BME280;60618;40.084;32.908;2023-07-31T12:27:12;88932.59;;;31.23;22.58
72585;BME280;60618;40.084;32.908;2023-07-31T12:29:41;88932.19;;;30.71;22.31
72585;BME280;60618;40.084;32.908;2023-07-31T12:32:24;88931.50;;;30.30;22.30
72585;BME280;60618;40.084;32.908;2023-07-31T12:34:52;88930.13;;;30.86;22.47
72585;BME280;60618;40.084;32.908;2023-07-31T12:37:21;88929.44;;;30.85;21.83
72585;BME280;60618;40.084;32.908;2023-07-31T12:39:48;88933.69;;;30.61;21.85
72585;BME280;60618;40.084;32.908;2023-07-31T12:42:17;88932.81;;;30.42;22.62
72585;BME280;60618;40.084;32.908;2023-07-31T12:44:44;88925.53;;;30.90;21.90
72585;BME280;60618;40.084;32.908;2023-07-31T12:47:13;88924.75;;;31.17;21.55
72585;BME280;60618;40.084;32.908;2023-07-31T12:49:40;88926.47;;;30.53;22.05
72585;BME280;60618;40.084;32.908;2023-07-31T12:52:07;88924.47;;;30.13;22.32
72585;BME280;60618;40.084;32.908;2023-07-31T12:54:35;88918.03;;;30.49;21.75
72585;BME280;60618;40.084;32.908;2023-07-31T12:57:02;88925.66;;;30.78;21.50
72585;BME280;60618;40.084;32.908;2023-07-31T12:59:29;88921.81;;;30.29;22.37
72585;BME280;60618;40.084;32.908;2023-07-31T13:01:56;88923.44;;;30.34;22.21